Defiance, Ohio
Current Conditions -  °F | °C
As of 7:53 AM on Friday 19 Dec 2014 (Local Time) from KDFI Reporting Station
Overcast Overcast  
Wind Chill: 29°   Ceiling: 2300
Heat Index: 29°   Visibility: 7mi
Dew Point: 24°   Wind: 3mph
Humidity: 82%   Direction: NA
Pressure: 30.27"   Gusts: NA
Location:  41.29°N, 84.36°W
Report Text: KDFI 191253Z AUTO VRB03KT 7SM OVC023 M02/M04 A3027 RMK AO2 SLP259 T10171044 TSNO
Loading
Personal Weather Stations






























Interactive Weather Map New forecast layout! Learn more

10-Day Weather Forecast

Advertisements
Track Severe Weather on mobile